sensor_id;sensor_type;location;lat;lon;timestamp;P1;durP1;ratioP1;P2;durP2;ratioP2
17739;SDS011;8990;33.226;-97.150;2023-05-13T00:02:17;2.85;;;2.15;;
17739;SDS011;8990;33.226;-97.150;2023-05-13T00:04:47;3.33;;;3.08;;
17739;SDS011;8990;33.226;-97.150;2023-05-13T00:07:16;3.80;;;3.45;;
17739;SDS011;8990;33.226;-97.150;2023-05-13T00:09:45;6.80;;;3.78;;
17739;SDS011;8990;33.226;-97.150;2023-05-13T00:12:15;7.63;;;2.95;;
17739;SDS011;8990;33.226;-97.150;2023-05-13T00:14:44;2.28;;;2.17;;
17739;SDS011;8990;33.226;-97.150;2023-05-13T00:17:13;3.85;;;2.90;;
17739;SDS011;8990;33.226;-97.150;2023-05-13T00:19:43;7.70;;;2.97;;
17739;SDS011;8990;33.226;-97.150;2023-05-13T00:22:13;2.10;;;2.00;;
17739;SDS011;8990;33.226;-97.150;2023-05-13T00:24:42;1.92;;;1.83;;
17739;SDS011;8990;33.226;-97.150;2023-05-13T00:27:11;21.85;;;3.67;;
17739;SDS011;8990;33.226;-97.150;2023-05-13T00:29:40;1.67;;;1.58;;
17739;SDS011;8990;33.226;-97.150;2023-05-13T00:32:09;2.60;;;2.40;;
17739;SDS011;8990;33.226;-97.150;2023-05-13T00:34:37;4.15;;;2.35;;
17739;SDS011;8990;33.226;-97.150;2023-05-13T00:37:06;5.13;;;3.55;;
17739;SDS011;8990;33.226;-97.150;2023-05-13T00:39:38;3.42;;;1.98;;
17739;SDS011;8990;33.226;-97.150;2023-05-13T00:42:07;4.38;;;2.25;;
17739;SDS011;8990;33.226;-97.150;2023-05-13T00:44:37;1.77;;;1.67;;
17739;SDS011;8990;33.226;-97.150;2023-05-13T00:47:06;1.83;;;1.73;;
17739;SDS011;8990;33.226;-97.150;2023-05-13T00:49:37;2.75;;;2.42;;
17739;SDS011;8990;33.226;-97.150;2023-05-13T00:52:06;2.30;;;2.10;;
17739;SDS011;8990;33.226;-97.150;2023-05-13T00:54:38;1.77;;;1.42;;
17739;SDS011;8990;33.226;-97.150;2023-05-13T00:57:07;4.05;;;2.30;;
17739;SDS011;8990;33.226;-97.150;2023-05-13T00:59:36;3.42;;;3.10;;
17739;SDS011;8990;33.226;-97.150;2023-05-13T01:02:06;3.40;;;2.10;;
17739;SDS011;8990;33.226;-97.150;2023-05-13T01:04:41;2.60;;;2.40;;
17739;SDS011;8990;33.226;-97.150;2023-05-13T01:07:17;1.88;;;1.77;;
17739;SDS011;8990;33.226;-97.150;2023-05-13T01:09:57;4.03;;;2.95;;
17739;SDS011;8990;33.226;-97.150;2023-05-13T01:12:32;4.03;;;1.85;;
17739;SDS011;8990;33.226;-97.150;2023-05-13T01:15:04;2.60;;;1.75;;
17739;SDS011;8990;33.226;-97.150;2023-05-13T01:17:36;2.67;;;1.85;;
17739;SDS011;8990;33.226;-97.150;2023-05-13T01:20:11;1.90;;;1.80;;
17739;SDS011;8990;33.226;-97.150;2023-05-13T01:22:42;3.03;;;2.25;;
17739;SDS011;8990;33.226;-97.150;2023-05-13T01:25:11;1.55;;;1.48;;
17739;SDS011;8990;33.226;-97.150;2023-05-13T01:27:40;3.17;;;2.85;;
17739;SDS011;8990;33.226;-97.150;2023-05-13T01:30:11;2.33;;;2.08;;
17739;SDS011;8990;33.226;-97.150;2023-05-13T01:32:41;2.40;;;2.15;;
17739;SDS011;8990;33.226;-97.150;2023-05-13T01:35:11;3.15;;;2.78;;
17739;SDS011;8990;33.226;-97.150;2023-05-13T01:37:45;5.00;;;3.00;;
17739;SDS011;8990;33.226;-97.150;2023-05-13T01:40:17;1.48;;;1.38;;
17739;SDS011;8990;33.226;-97.150;2023-05-13T01:42:47;2.13;;;1.92;;
17739;SDS011;8990;33.226;-97.150;2023-05-13T01:45:16;3.40;;;2.80;;
17739;SDS011;8990;33.226;-97.150;2023-05-13T01:47:45;3.63;;;2.42;;
17739;SDS011;8990;33.226;-97.150;2023-05-13T01:50:15;4.38;;;3.13;;
17739;SDS011;8990;33.226;-97.150;2023-05-13T01:52:46;2.83;;;1.88;;
17739;SDS011;8990;33.226;-97.150;2023-05-13T01:55:14;2.75;;;1.98;;
17739;SDS011;8990;33.226;-97.150;2023-05-13T01:57:45;1.70;;;1.60;;
17739;SDS011;8990;33.226;-97.150;2023-05-13T02:00:15;4.72;;;2.20;;
17739;SDS011;8990;33.226;-97.150;2023-05-13T02:02:47;2.60;;;2.40;;
17739;SDS011;8990;33.226;-97.150;2023-05-13T02:05:16;2.28;;;2.08;;
17739;SDS011;8990;33.226;-97.150;2023-05-13T02:07:47;1.67;;;1.58;;
17739;SDS011;8990;33.226;-97.150;2023-05-13T02:10:16;2.08;;;1.85;;
17739;SDS011;8990;33.226;-97.150;2023-05-13T02:12:45;2.25;;;1.88;;
17739;SDS011;8990;33.226;-97.150;2023-05-13T02:15:14;3.75;;;1.95;;
17739;SDS011;8990;33.226;-97.150;2023-05-13T02:17:42;4.68;;;2.33;;
17739;SDS011;8990;33.226;-97.150;2023-05-13T02:20:13;2.33;;;2.13;;
17739;SDS011;8990;33.226;-97.150;2023-05-13T02:22:42;2.45;;;1.65;;
17739;SDS011;8990;33.226;-97.150;2023-05-13T02:25:12;2.40;;;1.83;;
17739;SDS011;8990;33.226;-97.150;2023-05-13T02:27:41;1.95;;;1.85;;
17739;SDS011;8990;33.226;-97.150;2023-05-13T02:30:12;3.13;;;1.83;;
17739;SDS011;8990;33.226;-97.150;2023-05-13T02:32:41;0.95;;;0.90;;
17739;SDS011;8990;33.226;-97.150;2023-05-13T02:35:09;7.53;;;1.90;;
17739;SDS011;8990;33.226;-97.150;2023-05-13T02:37:38;12.48;;;2.67;;
17739;SDS011;8990;33.226;-97.150;2023-05-13T02:40:09;0.93;;;0.93;;
17739;SDS011;8990;33.226;-97.150;2023-05-13T02:42:40;2.45;;;2.15;;
17739;SDS011;8990;33.226;-97.150;2023-05-13T02:45:11;6.45;;;1.88;;
17739;SDS011;8990;33.226;-97.150;2023-05-13T02:47:44;1.70;;;1.60;;
17739;SDS011;8990;33.226;-97.150;2023-05-13T02:50:13;5.15;;;1.67;;
17739;SDS011;8990;33.226;-97.150;2023-05-13T02:52:42;2.17;;;1.17;;
17739;SDS011;8990;33.226;-97.150;2023-05-13T02:55:13;1.30;;;1.25;;
17739;SDS011;8990;33.226;-97.150;2023-05-13T02:57:42;6.93;;;1.95;;
17739;SDS011;8990;33.226;-97.150;2023-05-13T03:00:12;1.25;;;1.25;;
17739;SDS011;8990;33.226;-97.150;2023-05-13T03:02:41;1.25;;;1.17;;
17739;SDS011;8990;33.226;-97.150;2023-05-13T03:05:10;2.63;;;1.60;;
17739;SDS011;8990;33.226;-97.150;2023-05-13T03:07:39;1.42;;;1.33;;
17739;SDS011;8990;33.226;-97.150;2023-05-13T03:10:09;1.33;;;1.23;;
17739;SDS011;8990;33.226;-97.150;2023-05-13T03:12:39;0.80;;;0.77;;
17739;SDS011;8990;33.226;-97.150;2023-05-13T03:15:09;0.30;;;0.30;;
17739;SDS011;8990;33.226;-97.150;2023-05-13T03:17:39;2.45;;;0.85;;
17739;SDS011;8990;33.226;-97.150;2023-05-13T03:20:10;5.95;;;0.82;;
17739;SDS011;8990;33.226;-97.150;2023-05-13T03:22:39;2.42;;;1.02;;
17739;SDS011;8990;33.226;-97.150;2023-05-13T03:25:10;0.52;;;0.52;;
17739;SDS011;8990;33.226;-97.150;2023-05-13T03:27:46;5.75;;;1.88;;
17739;SDS011;8990;33.226;-97.150;2023-05-13T03:30:16;4.90;;;1.58;;
17739;SDS011;8990;33.226;-97.150;2023-05-13T03:33:03;0.42;;;0.42;;
17739;SDS011;8990;33.226;-97.150;2023-05-13T03:35:33;1.05;;;1.05;;
17739;SDS011;8990;33.226;-97.150;2023-05-13T03:38:02;0.65;;;0.65;;
17739;SDS011;8990;33.226;-97.150;2023-05-13T03:40:34;0.70;;;0.70;;
17739;SDS011;8990;33.226;-97.150;2023-05-13T03:43:05;0.95;;;0.95;;
17739;SDS011;8990;33.226;-97.150;2023-05-13T03:45:38;14.85;;;2.25;;
17739;SDS011;8990;33.226;-97.150;2023-05-13T03:48:14;1.15;;;0.88;;
17739;SDS011;8990;33.226;-97.150;2023-05-13T03:50:43;2.65;;;1.23;;
17739;SDS011;8990;33.226;-97.150;2023-05-13T03:53:14;1.55;;;1.40;;
17739;SDS011;8990;33.226;-97.150;2023-05-13T03:55:45;3.47;;;1.55;;
17739;SDS011;8990;33.226;-97.150;2023-05-13T03:58:16;0.80;;;0.80;;
17739;SDS011;8990;33.226;-97.150;2023-05-13T04:00:47;1.60;;;0.95;;
17739;SDS011;8990;33.226;-97.150;2023-05-13T04:03:16;0.77;;;0.77;;
17739;SDS011;8990;33.226;-97.150;2023-05-13T04:05:45;3.53;;;1.83;;
17739;SDS011;8990;33.226;-97.150;2023-05-13T04:08:14;1.88;;;1.05;;
17739;SDS011;8990;33.226;-97.150;2023-05-13T04:10:43;0.47;;;0.47;;
17739;SDS011;8990;33.226;-97.150;2023-05-13T04:13:12;2.40;;;1.42;;
17739;SDS011;8990;33.226;-97.150;2023-05-13T04:15:43;1.50;;;1.08;;
17739;SDS011;8990;33.226;-97.150;2023-05-13T04:18:13;1.55;;;1.38;;
17739;SDS011;8990;33.226;-97.150;2023-05-13T04:20:42;0.95;;;0.60;;
17739;SDS011;8990;33.226;-97.150;2023-05-13T04:23:10;1.27;;;1.17;;
17739;SDS011;8990;33.226;-97.150;2023-05-13T04:25:39;0.90;;;0.90;;
17739;SDS011;8990;33.226;-97.150;2023-05-13T04:28:09;10.77;;;1.17;;
17739;SDS011;8990;33.226;-97.150;2023-05-13T04:30:40;0.63;;;0.63;;
17739;SDS011;8990;33.226;-97.150;2023-05-13T04:33:12;1.50;;;1.40;;
17739;SDS011;8990;33.226;-97.150;2023-05-13T04:35:44;0.73;;;0.65;;
17739;SDS011;8990;33.226;-97.150;2023-05-13T04:38:13;0.60;;;0.60;;
17739;SDS011;8990;33.226;-97.150;2023-05-13T04:40:42;0.93;;;0.90;;
17739;SDS011;8990;33.226;-97.150;2023-05-13T04:43:15;0.60;;;0.60;;
17739;SDS011;8990;33.226;-97.150;2023-05-13T04:45:52;0.70;;;0.70;;
17739;SDS011;8990;33.226;-97.150;2023-05-13T04:48:22;0.30;;;0.30;;
17739;SDS011;8990;33.226;-97.150;2023-05-13T04:50:53;0.60;;;0.60;;
17739;SDS011;8990;33.226;-97.150;2023-05-13T04:53:24;1.42;;;1.38;;
17739;SDS011;8990;33.226;-97.150;2023-05-13T04:55:56;0.50;;;0.50;;
17739;SDS011;8990;33.226;-97.150;2023-05-13T04:58:27;0.95;;;0.80;;
17739;SDS011;8990;33.226;-97.150;2023-05-13T05:00:57;1.00;;;0.93;;
17739;SDS011;8990;33.226;-97.150;2023-05-13T05:03:27;1.40;;;1.33;;
17739;SDS011;8990;33.226;-97.150;2023-05-13T05:05:57;0.52;;;0.52;;
17739;SDS011;8990;33.226;-97.150;2023-05-13T05:08:26;12.75;;;2.60;;
17739;SDS011;8990;33.226;-97.150;2023-05-13T05:10:56;0.55;;;0.55;;
17739;SDS011;8990;33.226;-97.150;2023-05-13T05:13:26;0.50;;;0.50;;
17739;SDS011;8990;33.226;-97.150;2023-05-13T05:15:55;0.10;;;0.10;;
17739;SDS011;8990;33.226;-97.150;2023-05-13T05:18:26;0.52;;;0.52;;
17739;SDS011;8990;33.226;-97.150;2023-05-13T05:20:55;0.45;;;0.45;;
17739;SDS011;8990;33.226;-97.150;2023-05-13T05:23:24;0.43;;;0.43;;
17739;SDS011;8990;33.226;-97.150;2023-05-13T05:25:53;0.52;;;0.52;;
17739;SDS011;8990;33.226;-97.150;2023-05-13T05:28:22;0.50;;;0.50;;
17739;SDS011;8990;33.226;-97.150;2023-05-13T05:30:51;1.00;;;1.00;;
17739;SDS011;8990;33.226;-97.150;2023-05-13T05:33:27;1.20;;;1.10;;
17739;SDS011;8990;33.226;-97.150;2023-05-13T05:35:56;2.30;;;0.95;;
17739;SDS011;8990;33.226;-97.150;2023-05-13T05:38:25;1.38;;;0.95;;
17739;SDS011;8990;33.226;-97.150;2023-05-13T05:40:56;1.33;;;1.05;;
17739;SDS011;8990;33.226;-97.150;2023-05-13T05:43:26;1.08;;;0.65;;
17739;SDS011;8990;33.226;-97.150;2023-05-13T05:45:55;1.42;;;1.13;;
17739;SDS011;8990;33.226;-97.150;2023-05-13T05:48:25;0.22;;;0.22;;
17739;SDS011;8990;33.226;-97.150;2023-05-13T05:50:56;1.42;;;1.27;;
17739;SDS011;8990;33.226;-97.150;2023-05-13T05:53:29;1.35;;;0.98;;
17739;SDS011;8990;33.226;-97.150;2023-05-13T05:56:00;1.25;;;1.25;;
17739;SDS011;8990;33.226;-97.150;2023-05-13T05:58:29;0.98;;;0.98;;
17739;SDS011;8990;33.226;-97.150;2023-05-13T06:00:58;0.50;;;0.50;;
17739;SDS011;8990;33.226;-97.150;2023-05-13T06:03:29;3.67;;;1.45;;
17739;SDS011;8990;33.226;-97.150;2023-05-13T06:05:58;8.35;;;2.25;;
17739;SDS011;8990;33.226;-97.150;2023-05-13T06:08:28;1.20;;;1.08;;
17739;SDS011;8990;33.226;-97.150;2023-05-13T06:10:58;1.38;;;1.27;;
17739;SDS011;8990;33.226;-97.150;2023-05-13T06:13:27;0.45;;;0.45;;
17739;SDS011;8990;33.226;-97.150;2023-05-13T06:15:56;0.70;;;0.70;;
17739;SDS011;8990;33.226;-97.150;2023-05-13T06:18:25;3.10;;;1.75;;
17739;SDS011;8990;33.226;-97.150;2023-05-13T06:20:56;3.25;;;1.00;;
17739;SDS011;8990;33.226;-97.150;2023-05-13T06:23:26;1.25;;;1.20;;
17739;SDS011;8990;33.226;-97.150;2023-05-13T06:25:54;0.52;;;0.45;;
17739;SDS011;8990;33.226;-97.150;2023-05-13T06:28:24;1.02;;;0.98;;
17739;SDS011;8990;33.226;-97.150;2023-05-13T06:30:52;0.25;;;0.25;;
17739;SDS011;8990;33.226;-97.150;2023-05-13T06:33:21;1.17;;;1.08;;
17739;SDS011;8990;33.226;-97.150;2023-05-13T06:35:51;0.45;;;0.45;;
17739;SDS011;8990;33.226;-97.150;2023-05-13T06:38:22;0.57;;;0.57;;
17739;SDS011;8990;33.226;-97.150;2023-05-13T06:40:55;17.17;;;1.27;;
17739;SDS011;8990;33.226;-97.150;2023-05-13T06:43:35;0.63;;;0.63;;
17739;SDS011;8990;33.226;-97.150;2023-05-13T06:46:26;0.85;;;0.85;;
17739;SDS011;8990;33.226;-97.150;2023-05-13T06:48:55;1.10;;;0.75;;
17739;SDS011;8990;33.226;-97.150;2023-05-13T06:51:24;0.73;;;0.73;;
17739;SDS011;8990;33.226;-97.150;2023-05-13T06:53:56;0.65;;;0.63;;
17739;SDS011;8990;33.226;-97.150;2023-05-13T06:56:25;0.10;;;0.10;;
17739;SDS011;8990;33.226;-97.150;2023-05-13T06:58:54;0.77;;;0.77;;
17739;SDS011;8990;33.226;-97.150;2023-05-13T07:01:23;2.10;;;0.88;;
17739;SDS011;8990;33.226;-97.150;2023-05-13T07:03:52;1.92;;;1.05;;
17739;SDS011;8990;33.226;-97.150;2023-05-13T07:06:21;0.60;;;0.60;;
17739;SDS011;8990;33.226;-97.150;2023-05-13T07:08:50;0.55;;;0.55;;
17739;SDS011;8990;33.226;-97.150;2023-05-13T07:11:21;0.38;;;0.38;;
17739;SDS011;8990;33.226;-97.150;2023-05-13T07:13:50;3.50;;;1.58;;
17739;SDS011;8990;33.226;-97.150;2023-05-13T07:16:19;0.38;;;0.38;;
17739;SDS011;8990;33.226;-97.150;2023-05-13T07:18:48;0.10;;;0.10;;
17739;SDS011;8990;33.226;-97.150;2023-05-13T07:21:19;0.43;;;0.43;;
17739;SDS011;8990;33.226;-97.150;2023-05-13T07:23:49;0.35;;;0.32;;
17739;SDS011;8990;33.226;-97.150;2023-05-13T07:26:17;4.45;;;0.63;;
17739;SDS011;8990;33.226;-97.150;2023-05-13T07:28:48;0.70;;;0.70;;
17739;SDS011;8990;33.226;-97.150;2023-05-13T07:31:17;1.25;;;1.02;;
17739;SDS011;8990;33.226;-97.150;2023-05-13T07:33:45;0.20;;;0.17;;
17739;SDS011;8990;33.226;-97.150;2023-05-13T07:36:14;0.70;;;0.70;;
17739;SDS011;8990;33.226;-97.150;2023-05-13T07:38:43;0.60;;;0.60;;
17739;SDS011;8990;33.226;-97.150;2023-05-13T07:41:12;2.03;;;0.88;;
17739;SDS011;8990;33.226;-97.150;2023-05-13T07:43:41;0.35;;;0.35;;
17739;SDS011;8990;33.226;-97.150;2023-05-13T07:46:11;0.40;;;0.32;;
17739;SDS011;8990;33.226;-97.150;2023-05-13T07:48:41;0.43;;;0.20;;
17739;SDS011;8990;33.226;-97.150;2023-05-13T07:51:10;0.38;;;0.38;;
17739;SDS011;8990;33.226;-97.150;2023-05-13T07:53:39;0.20;;;0.20;;
17739;SDS011;8990;33.226;-97.150;2023-05-13T07:56:07;1.02;;;0.93;;
17739;SDS011;8990;33.226;-97.150;2023-05-13T07:58:36;0.22;;;0.22;;
17739;SDS011;8990;33.226;-97.150;2023-05-13T08:01:06;0.15;;;0.13;;
17739;SDS011;8990;33.226;-97.150;2023-05-13T08:03:36;0.65;;;0.65;;
17739;SDS011;8990;33.226;-97.150;2023-05-13T08:06:05;0.40;;;0.40;;
17739;SDS011;8990;33.226;-97.150;2023-05-13T08:08:34;0.38;;;0.38;;
17739;SDS011;8990;33.226;-97.150;2023-05-13T08:11:03;0.43;;;0.43;;
17739;SDS011;8990;33.226;-97.150;2023-05-13T08:13:32;1.15;;;1.05;;
17739;SDS011;8990;33.226;-97.150;2023-05-13T08:16:01;1.15;;;0.88;;
17739;SDS011;8990;33.226;-97.150;2023-05-13T08:18:31;0.90;;;0.90;;
17739;SDS011;8990;33.226;-97.150;2023-05-13T08:21:03;1.13;;;0.35;;
17739;SDS011;8990;33.226;-97.150;2023-05-13T08:23:33;0.57;;;0.57;;
17739;SDS011;8990;33.226;-97.150;2023-05-13T08:26:03;0.75;;;0.75;;
17739;SDS011;8990;33.226;-97.150;2023-05-13T08:28:32;0.55;;;0.55;;
17739;SDS011;8990;33.226;-97.150;2023-05-13T08:31:01;0.35;;;0.35;;
17739;SDS011;8990;33.226;-97.150;2023-05-13T08:33:30;2.55;;;0.90;;
17739;SDS011;8990;33.226;-97.150;2023-05-13T08:36:00;0.20;;;0.20;;
17739;SDS011;8990;33.226;-97.150;2023-05-13T08:38:30;0.35;;;0.25;;
17739;SDS011;8990;33.226;-97.150;2023-05-13T08:41:00;1.15;;;1.02;;
17739;SDS011;8990;33.226;-97.150;2023-05-13T08:43:32;0.32;;;0.32;;
17739;SDS011;8990;33.226;-97.150;2023-05-13T08:46:02;0.80;;;0.77;;
17739;SDS011;8990;33.226;-97.150;2023-05-13T08:48:33;0.68;;;0.68;;
17739;SDS011;8990;33.226;-97.150;2023-05-13T08:51:02;0.47;;;0.47;;
17739;SDS011;8990;33.226;-97.150;2023-05-13T08:53:34;1.25;;;0.93;;
17739;SDS011;8990;33.226;-97.150;2023-05-13T08:56:06;0.43;;;0.43;;
17739;SDS011;8990;33.226;-97.150;2023-05-13T08:58:35;0.50;;;0.50;;
17739;SDS011;8990;33.226;-97.150;2023-05-13T09:01:04;1.02;;;0.93;;
17739;SDS011;8990;33.226;-97.150;2023-05-13T09:03:33;1.75;;;0.70;;
17739;SDS011;8990;33.226;-97.150;2023-05-13T09:06:08;0.63;;;0.63;;
17739;SDS011;8990;33.226;-97.150;2023-05-13T09:08:38;0.28;;;0.25;;
17739;SDS011;8990;33.226;-97.150;2023-05-13T09:11:07;1.50;;;0.77;;
17739;SDS011;8990;33.226;-97.150;2023-05-13T09:13:36;0.43;;;0.43;;
17739;SDS011;8990;33.226;-97.150;2023-05-13T09:16:05;0.45;;;0.45;;
17739;SDS011;8990;33.226;-97.150;2023-05-13T09:18:34;1.08;;;0.70;;
17739;SDS011;8990;33.226;-97.150;2023-05-13T09:21:22;0.55;;;0.55;;
17739;SDS011;8990;33.226;-97.150;2023-05-13T09:24:03;0.63;;;0.63;;
17739;SDS011;8990;33.226;-97.150;2023-05-13T09:26:34;0.20;;;0.20;;
17739;SDS011;8990;33.226;-97.150;2023-05-13T09:29:16;0.60;;;0.60;;
17739;SDS011;8990;33.226;-97.150;2023-05-13T09:31:46;2.40;;;1.20;;
17739;SDS011;8990;33.226;-97.150;2023-05-13T09:34:25;0.80;;;0.80;;
17739;SDS011;8990;33.226;-97.150;2023-05-13T09:36:56;0.63;;;0.63;;
17739;SDS011;8990;33.226;-97.150;2023-05-13T09:39:29;2.42;;;1.15;;
17739;SDS011;8990;33.226;-97.150;2023-05-13T09:41:59;0.68;;;0.68;;
17739;SDS011;8990;33.226;-97.150;2023-05-13T09:44:28;1.98;;;0.55;;
17739;SDS011;8990;33.226;-97.150;2023-05-13T09:46:57;1.65;;;0.80;;
17739;SDS011;8990;33.226;-97.150;2023-05-13T09:49:27;0.60;;;0.60;;
17739;SDS011;8990;33.226;-97.150;2023-05-13T09:51:58;0.57;;;0.57;;
17739;SDS011;8990;33.226;-97.150;2023-05-13T09:54:34;0.32;;;0.32;;
17739;SDS011;8990;33.226;-97.150;2023-05-13T09:57:04;1.23;;;0.88;;
17739;SDS011;8990;33.226;-97.150;2023-05-13T09:59:33;1.73;;;1.45;;
17739;SDS011;8990;33.226;-97.150;2023-05-13T10:02:03;0.47;;;0.47;;
17739;SDS011;8990;33.226;-97.150;2023-05-13T10:04:33;0.70;;;0.70;;
17739;SDS011;8990;33.226;-97.150;2023-05-13T10:07:02;0.65;;;0.65;;
17739;SDS011;8990;33.226;-97.150;2023-05-13T10:09:35;0.57;;;0.57;;
17739;SDS011;8990;33.226;-97.150;2023-05-13T10:12:06;0.55;;;0.55;;
17739;SDS011;8990;33.226;-97.150;2023-05-13T10:14:37;1.50;;;0.60;;
17739;SDS011;8990;33.226;-97.150;2023-05-13T10:17:06;3.30;;;0.63;;
17739;SDS011;8990;33.226;-97.150;2023-05-13T10:19:35;0.50;;;0.50;;
17739;SDS011;8990;33.226;-97.150;2023-05-13T10:22:05;1.00;;;0.75;;
17739;SDS011;8990;33.226;-97.150;2023-05-13T10:24:36;0.70;;;0.70;;
17739;SDS011;8990;33.226;-97.150;2023-05-13T10:27:06;0.77;;;0.77;;
17739;SDS011;8990;33.226;-97.150;2023-05-13T10:29:37;0.73;;;0.73;;
17739;SDS011;8990;33.226;-97.150;2023-05-13T10:32:07;0.40;;;0.40;;
17739;SDS011;8990;33.226;-97.150;2023-05-13T10:34:37;1.27;;;1.17;;
17739;SDS011;8990;33.226;-97.150;2023-05-13T10:37:12;0.50;;;0.50;;
17739;SDS011;8990;33.226;-97.150;2023-05-13T10:40:04;1.13;;;1.08;;
17739;SDS011;8990;33.226;-97.150;2023-05-13T10:42:49;0.60;;;0.60;;
17739;SDS011;8990;33.226;-97.150;2023-05-13T10:45:27;1.55;;;1.08;;
17739;SDS011;8990;33.226;-97.150;2023-05-13T10:48:04;0.15;;;0.15;;
17739;SDS011;8990;33.226;-97.150;2023-05-13T10:50:35;1.50;;;0.80;;
17739;SDS011;8990;33.226;-97.150;2023-05-13T10:53:08;0.57;;;0.57;;
17739;SDS011;8990;33.226;-97.150;2023-05-13T10:55:51;2.40;;;0.70;;
17739;SDS011;8990;33.226;-97.150;2023-05-13T10:58:27;0.52;;;0.52;;
17739;SDS011;8990;33.226;-97.150;2023-05-13T11:01:11;0.63;;;0.63;;
17739;SDS011;8990;33.226;-97.150;2023-05-13T11:03:44;4.47;;;0.95;;
17739;SDS011;8990;33.226;-97.150;2023-05-13T11:06:19;0.40;;;0.40;;
17739;SDS011;8990;33.226;-97.150;2023-05-13T11:08:49;1.60;;;0.70;;
17739;SDS011;8990;33.226;-97.150;2023-05-13T11:11:24;0.43;;;0.43;;
17739;SDS011;8990;33.226;-97.150;2023-05-13T11:14:06;0.25;;;0.25;;
17739;SDS011;8990;33.226;-97.150;2023-05-13T11:16:44;1.00;;;0.90;;
17739;SDS011;8990;33.226;-97.150;2023-05-13T11:19:18;0.80;;;0.70;;
17739;SDS011;8990;33.226;-97.150;2023-05-13T11:21:49;1.27;;;1.20;;
17739;SDS011;8990;33.226;-97.150;2023-05-13T11:24:20;0.65;;;0.65;;
17739;SDS011;8990;33.226;-97.150;2023-05-13T11:26:51;0.60;;;0.55;;
17739;SDS011;8990;33.226;-97.150;2023-05-13T11:29:28;0.30;;;0.30;;
17739;SDS011;8990;33.226;-97.150;2023-05-13T11:31:58;0.80;;;0.20;;
17739;SDS011;8990;33.226;-97.150;2023-05-13T11:34:28;0.60;;;0.60;;
17739;SDS011;8990;33.226;-97.150;2023-05-13T11:36:58;1.33;;;1.13;;
17739;SDS011;8990;33.226;-97.150;2023-05-13T11:39:35;0.63;;;0.63;;
17739;SDS011;8990;33.226;-97.150;2023-05-13T11:42:09;0.50;;;0.50;;
17739;SDS011;8990;33.226;-97.150;2023-05-13T11:44:43;0.30;;;0.30;;
17739;SDS011;8990;33.226;-97.150;2023-05-13T11:47:16;0.55;;;0.55;;
17739;SDS011;8990;33.226;-97.150;2023-05-13T11:49:53;0.85;;;0.85;;
17739;SDS011;8990;33.226;-97.150;2023-05-13T11:52:23;1.10;;;0.95;;
17739;SDS011;8990;33.226;-97.150;2023-05-13T11:54:56;0.43;;;0.38;;
17739;SDS011;8990;33.226;-97.150;2023-05-13T11:57:28;0.60;;;0.60;;
17739;SDS011;8990;33.226;-97.150;2023-05-13T11:59:59;0.73;;;0.73;;
17739;SDS011;8990;33.226;-97.150;2023-05-13T12:02:32;0.30;;;0.30;;
17739;SDS011;8990;33.226;-97.150;2023-05-13T12:05:03;0.90;;;0.90;;
17739;SDS011;8990;33.226;-97.150;2023-05-13T12:07:33;0.80;;;0.75;;
17739;SDS011;8990;33.226;-97.150;2023-05-13T12:10:03;0.75;;;0.75;;
17739;SDS011;8990;33.226;-97.150;2023-05-13T12:12:36;2.55;;;0.95;;
17739;SDS011;8990;33.226;-97.150;2023-05-13T12:15:06;2.38;;;1.08;;
17739;SDS011;8990;33.226;-97.150;2023-05-13T12:17:38;2.28;;;1.80;;
17739;SDS011;8990;33.226;-97.150;2023-05-13T12:20:08;2.85;;;1.52;;
17739;SDS011;8990;33.226;-97.150;2023-05-13T12:22:48;0.60;;;0.55;;
17739;SDS011;8990;33.226;-97.150;2023-05-13T12:28:18;5.07;;;0.65;;
17739;SDS011;8990;33.226;-97.150;2023-05-13T12:30:49;0.73;;;0.73;;
17739;SDS011;8990;33.226;-97.150;2023-05-13T12:33:19;5.55;;;0.93;;
17739;SDS011;8990;33.226;-97.150;2023-05-13T12:35:48;1.25;;;0.68;;
17739;SDS011;8990;33.226;-97.150;2023-05-13T12:38:19;0.52;;;0.52;;
17739;SDS011;8990;33.226;-97.150;2023-05-13T12:40:49;1.17;;;1.08;;
17739;SDS011;8990;33.226;-97.150;2023-05-13T12:43:21;0.98;;;0.90;;
17739;SDS011;8990;33.226;-97.150;2023-05-13T12:45:51;0.50;;;0.50;;
17739;SDS011;8990;33.226;-97.150;2023-05-13T12:48:24;2.10;;;1.23;;
17739;SDS011;8990;33.226;-97.150;2023-05-13T12:50:53;1.67;;;0.75;;
17739;SDS011;8990;33.226;-97.150;2023-05-13T12:53:22;0.38;;;0.38;;
17739;SDS011;8990;33.226;-97.150;2023-05-13T12:55:51;0.25;;;0.25;;
17739;SDS011;8990;33.226;-97.150;2023-05-13T12:58:21;0.38;;;0.38;;
17739;SDS011;8990;33.226;-97.150;2023-05-13T13:00:50;0.28;;;0.28;;
17739;SDS011;8990;33.226;-97.150;2023-05-13T13:03:19;0.60;;;0.60;;
17739;SDS011;8990;33.226;-97.150;2023-05-13T13:05:48;0.25;;;0.25;;
17739;SDS011;8990;33.226;-97.150;2023-05-13T13:08:17;0.43;;;0.38;;
17739;SDS011;8990;33.226;-97.150;2023-05-13T13:10:47;1.17;;;0.80;;
17739;SDS011;8990;33.226;-97.150;2023-05-13T13:13:16;0.17;;;0.17;;
17739;SDS011;8990;33.226;-97.150;2023-05-13T13:15:47;0.55;;;0.55;;
17739;SDS011;8990;33.226;-97.150;2023-05-13T13:18:17;0.38;;;0.38;;
17739;SDS011;8990;33.226;-97.150;2023-05-13T13:20:46;1.15;;;0.75;;
17739;SDS011;8990;33.226;-97.150;2023-05-13T13:23:14;1.13;;;1.08;;
17739;SDS011;8990;33.226;-97.150;2023-05-13T13:25:44;0.50;;;0.50;;
17739;SDS011;8990;33.226;-97.150;2023-05-13T13:28:13;1.35;;;0.95;;
17739;SDS011;8990;33.226;-97.150;2023-05-13T13:30:41;0.63;;;0.63;;
17739;SDS011;8990;33.226;-97.150;2023-05-13T13:33:14;0.90;;;0.90;;
17739;SDS011;8990;33.226;-97.150;2023-05-13T13:35:44;0.85;;;0.85;;
17739;SDS011;8990;33.226;-97.150;2023-05-13T13:38:13;3.15;;;1.08;;
17739;SDS011;8990;33.226;-97.150;2023-05-13T13:40:42;0.22;;;0.22;;
17739;SDS011;8990;33.226;-97.150;2023-05-13T13:43:11;0.20;;;0.20;;
17739;SDS011;8990;33.226;-97.150;2023-05-13T13:45:40;0.40;;;0.40;;
17739;SDS011;8990;33.226;-97.150;2023-05-13T13:48:09;1.95;;;0.63;;
17739;SDS011;8990;33.226;-97.150;2023-05-13T13:50:39;0.20;;;0.20;;
17739;SDS011;8990;33.226;-97.150;2023-05-13T13:53:08;0.10;;;0.10;;
17739;SDS011;8990;33.226;-97.150;2023-05-13T13:55:37;0.20;;;0.20;;
17739;SDS011;8990;33.226;-97.150;2023-05-13T13:58:06;23.55;;;1.80;;
17739;SDS011;8990;33.226;-97.150;2023-05-13T14:00:35;0.08;;;0.08;;
17739;SDS011;8990;33.226;-97.150;2023-05-13T14:03:04;0.57;;;0.47;;
17739;SDS011;8990;33.226;-97.150;2023-05-13T14:05:33;0.20;;;0.20;;
17739;SDS011;8990;33.226;-97.150;2023-05-13T14:08:04;1.45;;;0.73;;
17739;SDS011;8990;33.226;-97.150;2023-05-13T14:10:33;0.00;;;0.00;;
17739;SDS011;8990;33.226;-97.150;2023-05-13T14:13:02;4.15;;;0.90;;
17739;SDS011;8990;33.226;-97.150;2023-05-13T14:15:31;0.30;;;0.17;;
17739;SDS011;8990;33.226;-97.150;2023-05-13T14:18:03;0.75;;;0.75;;
17739;SDS011;8990;33.226;-97.150;2023-05-13T14:20:33;0.35;;;0.35;;
17739;SDS011;8990;33.226;-97.150;2023-05-13T14:23:05;0.65;;;0.45;;
17739;SDS011;8990;33.226;-97.150;2023-05-13T14:25:34;0.08;;;0.08;;
17739;SDS011;8990;33.226;-97.150;2023-05-13T14:28:03;0.50;;;0.50;;
17739;SDS011;8990;33.226;-97.150;2023-05-13T14:30:32;1.55;;;0.82;;
17739;SDS011;8990;33.226;-97.150;2023-05-13T14:33:01;1.17;;;0.10;;
17739;SDS011;8990;33.226;-97.150;2023-05-13T14:35:30;0.63;;;0.40;;
17739;SDS011;8990;33.226;-97.150;2023-05-13T14:37:58;0.20;;;0.20;;
17739;SDS011;8990;33.226;-97.150;2023-05-13T14:40:29;1.17;;;0.77;;
17739;SDS011;8990;33.226;-97.150;2023-05-13T14:42:59;0.20;;;0.20;;
17739;SDS011;8990;33.226;-97.150;2023-05-13T14:45:28;0.13;;;0.13;;
17739;SDS011;8990;33.226;-97.150;2023-05-13T14:47:58;0.47;;;0.47;;
17739;SDS011;8990;33.226;-97.150;2023-05-13T14:50:27;0.50;;;0.45;;
17739;SDS011;8990;33.226;-97.150;2023-05-13T14:52:56;0.82;;;0.82;;
17739;SDS011;8990;33.226;-97.150;2023-05-13T14:55:26;0.13;;;0.13;;
17739;SDS011;8990;33.226;-97.150;2023-05-13T14:57:57;0.80;;;0.73;;